Time;durP1;ratioP1;P1;durP2;ratioP2;P2;SDS_P1;SDS_P2;PMS_P1;PMS_P2;Temp;Humidity;BMP_temperature;BMP_pressure;BME280_temperature;BME280_humidity;BME280_pressure;Samples;Min_cycle;Max_cycle;Signal;HPM_P1;HPM_P2
2022/04/02 00:00:28;;;;;;;5.65;1.13;;;;;;;;;;5048812;28;20491;-70
2022/04/02 00:02:55;;;;;;;2.47;1.10;;;;;;;;;;5049662;28;20150;-71
2022/04/02 00:05:22;;;;;;;5.22;1.25;;;;;;;;;;5050572;28;20682;-70
2022/04/02 00:07:49;;;;;;;2.53;1.23;;;;;;;;;;5051517;28;20056;-70
2022/04/02 00:10:18;;;;;;;3.08;1.23;;;;;;;;;;5051512;28;20056;-70
2022/04/02 00:12:45;;;;;;;5.32;1.40;;;;;;;;;;5050200;28;20082;-70
2022/04/02 00:15:12;;;;;;;6.38;1.50;;;;;;;;;;5051928;28;20110;-70
2022/04/02 00:17:40;;;;;;;4.40;1.27;;;;;;;;;;5051899;28;20064;-70
2022/04/02 00:20:07;;;;;;;4.03;1.40;;;;;;;;;;5053801;28;20048;-71
2022/04/02 00:22:35;;;;;;;2.85;1.20;;;;;;;;;;5055620;28;20052;-71
2022/04/02 00:25:02;;;;;;;6.35;1.40;;;;;;;;;;5057896;28;20049;-70
2022/04/02 00:27:30;;;;;;;6.47;1.33;;;;;;;;;;5054511;28;20071;-70
2022/04/02 00:29:57;;;;;;;6.65;1.67;;;;;;;;;;5051056;28;20060;-70
2022/04/02 00:32:25;;;;;;;4.30;1.58;;;;;;;;;;5054997;28;20059;-70
2022/04/02 00:34:52;;;;;;;5.60;1.40;;;;;;;;;;5059938;28;20059;-70
2022/04/02 00:37:19;;;;;;;2.80;1.42;;;;;;;;;;5074172;28;20060;-71
2022/04/02 00:39:47;;;;;;;2.85;1.10;;;;;;;;;;5053507;28;20052;-71
2022/04/02 00:42:14;;;;;;;4.20;1.30;;;;;;;;;;5054158;28;20060;-70
2022/04/02 00:44:42;;;;;;;3.97;1.30;;;;;;;;;;5056772;28;20052;-71
2022/04/02 00:47:09;;;;;;;4.20;1.20;;;;;;;;;;5055629;28;20502;-71
2022/04/02 00:49:37;;;;;;;3.45;1.10;;;;;;;;;;5056449;28;20052;-71
2022/04/02 00:52:04;;;;;;;4.38;1.23;;;;;;;;;;5056711;28;20044;-70
2022/04/02 00:54:31;;;;;;;2.78;1.10;;;;;;;;;;5053289;28;20098;-71
2022/04/02 00:56:59;;;;;;;4.55;1.30;;;;;;;;;;5051866;28;20052;-70
2022/04/02 00:59:26;;;;;;;5.47;1.27;;;;;;;;;;5058586;28;20056;-71
2022/04/02 01:01:55;;;;;;;3.85;1.55;;;;;;;;;;5053103;28;20459;-72
2022/04/02 01:04:22;;;;;;;3.53;1.30;;;;;;;;;;5054450;28;20048;-72
2022/04/02 01:06:50;;;;;;;5.20;1.58;;;;;;;;;;5049171;28;20045;-72
2022/04/02 01:09:17;;;;;;;4.88;1.30;;;;;;;;;;5051855;28;20366;-72
2022/04/02 01:11:46;;;;;;;3.63;1.40;;;;;;;;;;5053292;28;20064;-72
2022/04/02 01:14:13;;;;;;;7.90;1.90;;;;;;;;;;5052204;28;20092;-72
2022/04/02 01:16:41;;;;;;;2.45;1.17;;;;;;;;;;5048799;28;20049;-72
2022/04/02 01:19:09;;;;;;;4.95;1.25;;;;;;;;;;5044785;28;20094;-72
2022/04/02 01:21:37;;;;;;;3.60;1.23;;;;;;;;;;5049911;28;20505;-72
2022/04/02 01:24:06;;;;;;;2.97;1.20;;;;;;;;;;5054035;28;20070;-72
2022/04/02 01:26:33;;;;;;;5.50;1.73;;;;;;;;;;5049091;28;20044;-72
2022/04/02 01:29:01;;;;;;;5.43;1.23;;;;;;;;;;5049199;28;20110;-72
2022/04/02 01:31:28;;;;;;;4.55;1.10;;;;;;;;;;5053526;28;20498;-71
2022/04/02 01:33:56;;;;;;;3.47;1.00;;;;;;;;;;5067963;28;20056;-72
2022/04/02 01:36:23;;;;;;;6.25;1.40;;;;;;;;;;5051299;28;20052;-72
2022/04/02 01:38:51;;;;;;;5.25;1.40;;;;;;;;;;5051807;28;20064;-71
2022/04/02 01:41:20;;;;;;;9.00;1.58;;;;;;;;;;5052364;28;20049;-71
2022/04/02 01:43:48;;;;;;;2.47;1.05;;;;;;;;;;5050377;28;20052;-71
2022/04/02 01:46:16;;;;;;;6.28;1.20;;;;;;;;;;5051439;28;20434;-71
2022/04/02 01:48:43;;;;;;;4.70;1.30;;;;;;;;;;5054018;28;20045;-71
2022/04/02 01:51:10;;;;;;;7.22;1.35;;;;;;;;;;5053603;28;20126;-71
2022/04/02 01:53:37;;;;;;;5.93;1.20;;;;;;;;;;5050343;28;20052;-71
2022/04/02 01:56:05;;;;;;;8.98;1.40;;;;;;;;;;5049635;28;20478;-71
2022/04/02 01:58:33;;;;;;;4.30;1.10;;;;;;;;;;5050354;28;20052;-72
2022/04/02 02:01:00;;;;;;;5.10;1.25;;;;;;;;;;5049706;28;20049;-71
2022/04/02 02:03:28;;;;;;;4.35;0.98;;;;;;;;;;5047836;28;20533;-71
2022/04/02 02:05:55;;;;;;;7.05;1.05;;;;;;;;;;5047244;28;20049;-71
2022/04/02 02:08:23;;;;;;;6.60;1.42;;;;;;;;;;5047232;28;20072;-72
2022/04/02 02:10:50;;;;;;;6.40;1.20;;;;;;;;;;5050666;28;20462;-71
2022/04/02 02:13:17;;;;;;;3.63;1.30;;;;;;;;;;5048336;28;20549;-72
2022/04/02 02:15:45;;;;;;;2.97;1.17;;;;;;;;;;5049777;28;20510;-71
2022/04/02 02:18:13;;;;;;;6.80;1.20;;;;;;;;;;5050092;28;20056;-72
2022/04/02 02:20:40;;;;;;;4.82;1.40;;;;;;;;;;5048605;28;20059;-71
2022/04/02 02:23:08;;;;;;;5.35;1.50;;;;;;;;;;5050085;28;20049;-72
2022/04/02 02:25:35;;;;;;;7.03;1.52;;;;;;;;;;5050804;28;20040;-72
2022/04/02 02:28:04;;;;;;;5.85;1.40;;;;;;;;;;5049803;28;20061;-72
2022/04/02 02:30:31;;;;;;;3.95;1.15;;;;;;;;;;5046091;28;20157;-71
2022/04/02 02:35:50;;;;;;;5.25;1.23;;;;;;;;;;5047954;28;20045;-72
2022/04/02 02:38:19;;;;;;;5.43;1.30;;;;;;;;;;5050842;28;20049;-72
2022/04/02 02:40:46;;;;;;;8.77;1.30;;;;;;;;;;5047840;28;20055;-72
2022/04/02 02:43:14;;;;;;;8.65;1.42;;;;;;;;;;5040944;28;20091;-71
2022/04/02 02:45:41;;;;;;;5.10;1.50;;;;;;;;;;5050293;28;20045;-71
2022/04/02 02:48:10;;;;;;;6.40;1.20;;;;;;;;;;5049313;28;20098;-72
2022/04/02 02:50:38;;;;;;;10.43;1.50;;;;;;;;;;5050428;28;20052;-71
2022/04/02 02:53:05;;;;;;;6.35;1.17;;;;;;;;;;5049516;28;20067;-71
2022/04/02 02:55:32;;;;;;;2.83;1.15;;;;;;;;;;5050248;28;20102;-71
2022/04/02 02:57:59;;;;;;;6.20;1.52;;;;;;;;;;5047176;28;20053;-71
2022/04/02 03:00:26;;;;;;;5.90;1.33;;;;;;;;;;5051970;28;20059;-71
2022/04/02 03:02:54;;;;;;;7.22;1.33;;;;;;;;;;5051293;28;20071;-72
2022/04/02 03:05:23;;;;;;;5.95;1.50;;;;;;;;;;5052277;28;20041;-71
2022/04/02 03:07:51;;;;;;;3.60;1.23;;;;;;;;;;5047466;28;20060;-71
2022/04/02 03:10:18;;;;;;;4.07;1.20;;;;;;;;;;5049431;28;20118;-71
2022/04/02 03:12:46;;;;;;;5.38;1.60;;;;;;;;;;5047632;28;20048;-72
2022/04/02 03:15:15;;;;;;;5.68;1.83;;;;;;;;;;5050752;28;20060;-71
2022/04/02 03:17:43;;;;;;;8.48;1.40;;;;;;;;;;5049852;28;20141;-71
2022/04/02 03:20:11;;;;;;;8.25;1.50;;;;;;;;;;5045655;28;21620;-71
2022/04/02 03:22:40;;;;;;;7.53;1.92;;;;;;;;;;5048609;28;21353;-71
2022/04/02 03:25:09;;;;;;;7.70;1.50;;;;;;;;;;5051144;28;20082;-72
2022/04/02 03:27:36;;;;;;;5.28;1.45;;;;;;;;;;5048191;28;20131;-71
2022/04/02 03:30:04;;;;;;;9.32;1.38;;;;;;;;;;5048524;28;20060;-72
2022/04/02 03:32:31;;;;;;;4.65;1.42;;;;;;;;;;5050915;28;20044;-72
2022/04/02 03:34:59;;;;;;;5.45;1.20;;;;;;;;;;5046712;28;20056;-72
2022/04/02 03:37:26;;;;;;;6.30;1.10;;;;;;;;;;5050967;28;20044;-71
2022/04/02 03:39:54;;;;;;;5.00;2.15;;;;;;;;;;5045322;28;20076;-72
2022/04/02 03:42:22;;;;;;;5.63;1.20;;;;;;;;;;5049449;28;20052;-71
2022/04/02 03:44:49;;;;;;;6.47;1.27;;;;;;;;;;5047066;28;20056;-71
2022/04/02 03:47:22;;;;;;;7.45;1.50;;;;;;;;;;5049641;28;20063;-71
2022/04/02 03:49:50;;;;;;;4.95;1.15;;;;;;;;;;5047031;28;20122;-71
2022/04/02 03:52:17;;;;;;;4.60;1.25;;;;;;;;;;5049467;28;20057;-72
2022/04/02 03:54:44;;;;;;;9.10;1.58;;;;;;;;;;5042647;28;20086;-71
2022/04/02 03:57:13;;;;;;;6.43;1.63;;;;;;;;;;5050559;28;20430;-71
2022/04/02 03:59:41;;;;;;;10.38;2.28;;;;;;;;;;5044628;28;20049;-71
2022/04/02 04:02:09;;;;;;;3.67;1.15;;;;;;;;;;5055500;28;20083;-72
2022/04/02 04:04:36;;;;;;;10.02;1.50;;;;;;;;;;5042270;28;20052;-71
2022/04/02 04:07:04;;;;;;;6.40;1.20;;;;;;;;;;5048195;28;20137;-72
2022/04/02 04:09:31;;;;;;;8.00;1.48;;;;;;;;;;5044909;28;20045;-72
2022/04/02 04:11:59;;;;;;;7.50;1.80;;;;;;;;;;5047289;28;20052;-72
2022/04/02 04:14:31;;;;;;;6.03;1.50;;;;;;;;;;5047696;28;20059;-71
2022/04/02 04:16:58;;;;;;;10.43;1.33;;;;;;;;;;5040528;28;20499;-71
2022/04/02 04:19:26;;;;;;;7.10;1.25;;;;;;;;;;5047056;28;20453;-71
2022/04/02 04:21:53;;;;;;;4.30;1.27;;;;;;;;;;5046005;28;20114;-72
2022/04/02 04:24:21;;;;;;;4.45;1.27;;;;;;;;;;5047228;28;20515;-71
2022/04/02 04:26:48;;;;;;;4.15;1.40;;;;;;;;;;5047686;28;20511;-71
2022/04/02 04:29:15;;;;;;;6.65;1.35;;;;;;;;;;5045099;28;20126;-71
2022/04/02 04:31:44;;;;;;;9.68;1.40;;;;;;;;;;5044265;28;20053;-71
2022/04/02 04:34:11;;;;;;;6.15;1.20;;;;;;;;;;5044461;28;20380;-71
2022/04/02 04:36:38;;;;;;;4.13;1.50;;;;;;;;;;5044051;28;20072;-71
2022/04/02 04:39:06;;;;;;;6.32;1.30;;;;;;;;;;5051050;28;20048;-71
2022/04/02 04:41:36;;;;;;;7.93;1.55;;;;;;;;;;5049986;28;20578;-71
2022/04/02 04:44:03;;;;;;;5.13;1.45;;;;;;;;;;5049134;28;20510;-71
2022/04/02 04:46:30;;;;;;;6.53;1.40;;;;;;;;;;5048892;28;20583;-71
2022/04/02 04:48:59;;;;;;;4.13;1.15;;;;;;;;;;5049782;28;20048;-72
2022/04/02 04:51:26;;;;;;;5.35;1.30;;;;;;;;;;5043350;28;20550;-71
2022/04/02 04:53:53;;;;;;;5.57;1.30;;;;;;;;;;5037540;28;20385;-71
2022/04/02 04:56:21;;;;;;;5.75;1.52;;;;;;;;;;5044607;28;20040;-71
2022/04/02 04:58:48;;;;;;;8.20;1.50;;;;;;;;;;5040551;28;20052;-71
2022/04/02 05:01:15;;;;;;;3.97;1.50;;;;;;;;;;5041856;28;20452;-71
2022/04/02 05:03:42;;;;;;;4.28;1.48;;;;;;;;;;5047029;28;20045;-71
2022/04/02 05:06:12;;;;;;;5.50;1.38;;;;;;;;;;5044181;28;20110;-72
2022/04/02 05:08:39;;;;;;;4.07;1.50;;;;;;;;;;5054894;28;20056;-71
2022/04/02 05:11:08;;;;;;;3.03;1.30;;;;;;;;;;5048441;28;20109;-71
2022/04/02 05:13:36;;;;;;;4.07;1.45;;;;;;;;;;5051411;28;20055;-71
2022/04/02 05:16:03;;;;;;;5.53;1.48;;;;;;;;;;5049711;28;20507;-70
2022/04/02 05:18:30;;;;;;;8.25;1.55;;;;;;;;;;5050052;28;20562;-71
2022/04/02 05:20:58;;;;;;;5.70;1.50;;;;;;;;;;5050873;28;20056;-70
2022/04/02 05:23:27;;;;;;;6.38;1.40;;;;;;;;;;5053517;28;20055;-71
2022/04/02 05:25:55;;;;;;;4.95;1.42;;;;;;;;;;5050545;28;20056;-71
2022/04/02 05:28:22;;;;;;;7.68;1.48;;;;;;;;;;5048181;28;20056;-71
2022/04/02 05:30:49;;;;;;;6.25;1.60;;;;;;;;;;5047540;28;20074;-70
2022/04/02 05:33:17;;;;;;;3.35;1.60;;;;;;;;;;5048735;28;20483;-70
2022/04/02 05:35:44;;;;;;;3.72;1.33;;;;;;;;;;5044278;28;20471;-71
2022/04/02 05:38:11;;;;;;;4.85;1.73;;;;;;;;;;5045538;28;20051;-71
2022/04/02 05:40:40;;;;;;;6.13;2.10;;;;;;;;;;5045823;28;20044;-71
2022/04/02 05:43:07;;;;;;;5.68;1.60;;;;;;;;;;5038082;28;20083;-71
2022/04/02 05:45:34;;;;;;;5.60;1.65;;;;;;;;;;5039043;28;20049;-72
2022/04/02 05:48:02;;;;;;;6.00;1.40;;;;;;;;;;5057971;28;20052;-71
2022/04/02 05:50:30;;;;;;;13.80;2.20;;;;;;;;;;5044120;28;20378;-71
2022/04/02 05:52:57;;;;;;;5.28;1.67;;;;;;;;;;5038705;28;20594;-71
2022/04/02 05:55:25;;;;;;;7.32;1.85;;;;;;;;;;5041009;28;20137;-71
2022/04/02 05:57:54;;;;;;;3.17;1.65;;;;;;;;;;5038847;28;20519;-71
2022/04/02 06:00:21;;;;;;;5.97;1.27;;;;;;;;;;5034889;28;20080;-71
2022/04/02 06:02:49;;;;;;;7.93;1.70;;;;;;;;;;5037810;28;20060;-72
2022/04/02 06:05:16;;;;;;;5.35;1.58;;;;;;;;;;5039565;28;20517;-72
2022/04/02 06:07:44;;;;;;;8.95;2.10;;;;;;;;;;5037526;28;20426;-71
2022/04/02 06:10:12;;;;;;;6.22;1.67;;;;;;;;;;5039145;28;20049;-71
2022/04/02 06:12:39;;;;;;;7.28;1.70;;;;;;;;;;5037986;28;20103;-71
2022/04/02 06:15:10;;;;;;;7.28;2.22;;;;;;;;;;5039911;28;20714;-70
2022/04/02 06:17:38;;;;;;;5.55;1.85;;;;;;;;;;5041499;28;20075;-71
2022/04/02 06:20:07;;;;;;;8.95;1.63;;;;;;;;;;5041059;28;20071;-70
2022/04/02 06:22:35;;;;;;;5.53;1.67;;;;;;;;;;5040693;28;20045;-71
2022/04/02 06:25:03;;;;;;;7.70;1.52;;;;;;;;;;5040830;28;20049;-72
2022/04/02 06:27:30;;;;;;;7.00;1.83;;;;;;;;;;5037841;28;20052;-70
2022/04/02 06:29:58;;;;;;;4.80;1.58;;;;;;;;;;5044840;28;20152;-71
2022/04/02 06:32:27;;;;;;;5.95;1.77;;;;;;;;;;5034906;28;20135;-71
2022/04/02 06:34:55;;;;;;;5.53;1.73;;;;;;;;;;5044560;28;20123;-71
2022/04/02 06:37:22;;;;;;;5.65;1.90;;;;;;;;;;5045448;28;20040;-71
2022/04/02 06:39:49;;;;;;;5.00;1.58;;;;;;;;;;5039699;28;20491;-71
2022/04/02 06:42:16;;;;;;;5.50;1.70;;;;;;;;;;5042475;28;20052;-71
2022/04/02 06:44:43;;;;;;;3.95;1.70;;;;;;;;;;5051075;28;20049;-71
2022/04/02 06:47:12;;;;;;;7.88;1.60;;;;;;;;;;5051053;28;20048;-71
2022/04/02 06:49:40;;;;;;;5.18;1.50;;;;;;;;;;5047045;28;20088;-71
2022/04/02 06:52:08;;;;;;;8.52;1.75;;;;;;;;;;5039398;28;20498;-71
2022/04/02 06:54:35;;;;;;;5.65;1.50;;;;;;;;;;5044551;28;20057;-71
2022/04/02 06:57:03;;;;;;;3.92;1.30;;;;;;;;;;5041437;28;20679;-70
2022/04/02 06:59:30;;;;;;;6.18;1.67;;;;;;;;;;5038019;28;20048;-71
2022/04/02 07:01:57;;;;;;;4.95;1.30;;;;;;;;;;5043766;28;20521;-71
2022/04/02 07:04:25;;;;;;;8.32;2.10;;;;;;;;;;5040330;28;20052;-71
2022/04/02 07:06:53;;;;;;;6.22;1.95;;;;;;;;;;5041098;28;20522;-71
2022/04/02 07:09:21;;;;;;;7.28;1.58;;;;;;;;;;5040287;28;20124;-71
2022/04/02 07:11:48;;;;;;;5.15;1.50;;;;;;;;;;5041252;28;20056;-71
2022/04/02 07:14:15;;;;;;;6.15;1.67;;;;;;;;;;5036713;28;20049;-71
2022/04/02 07:16:42;;;;;;;4.57;1.83;;;;;;;;;;5036927;28;20045;-71
2022/04/02 07:19:10;;;;;;;5.82;1.40;;;;;;;;;;5042815;28;20056;-71
2022/04/02 07:21:37;;;;;;;3.17;1.45;;;;;;;;;;5043068;28;20504;-71
2022/04/02 07:24:07;;;;;;;4.80;1.52;;;;;;;;;;5041477;28;20060;-71
2022/04/02 07:26:34;;;;;;;4.03;1.60;;;;;;;;;;5044713;28;20045;-71
2022/04/02 07:29:01;;;;;;;4.45;1.40;;;;;;;;;;5044047;28;20411;-71
2022/04/02 07:31:28;;;;;;;3.08;1.38;;;;;;;;;;5045547;28;20060;-71
2022/04/02 07:33:56;;;;;;;4.97;1.52;;;;;;;;;;5047653;28;20574;-71
2022/04/02 07:36:29;;;;;;;3.60;1.20;;;;;;;;;;5047012;28;20071;-70
2022/04/02 07:39:03;;;;;;;4.63;1.20;;;;;;;;;;5048046;28;20106;-71
2022/04/02 07:41:38;;;;;;;7.22;1.10;;;;;;;;;;5049211;28;20060;-72
2022/04/02 07:44:09;;;;;;;5.47;1.00;;;;;;;;;;5048294;28;20067;-71
2022/04/02 07:46:37;;;;;;;3.40;0.60;;;;;;;;;;5042992;28;20519;-71
2022/04/02 07:49:04;;;;;;;3.60;0.50;;;;;;;;;;5040620;28;20871;-71
2022/04/02 07:51:32;;;;;;;8.35;0.88;;;;;;;;;;5037632;28;20125;-71
2022/04/02 07:54:02;;;;;;;2.65;0.75;;;;;;;;;;5036557;28;20059;-71
2022/04/02 07:56:31;;;;;;;2.88;0.85;;;;;;;;;;5043024;28;20396;-71
2022/04/02 07:59:02;;;;;;;5.97;1.00;;;;;;;;;;5042991;28;20127;-71
2022/04/02 08:01:29;;;;;;;1.75;0.70;;;;;;;;;;5037908;28;20075;-71
2022/04/02 08:03:58;;;;;;;3.95;0.93;;;;;;;;;;5038794;28;20049;-72
2022/04/02 08:06:26;;;;;;;4.10;0.55;;;;;;;;;;5036525;28;20175;-72
2022/04/02 08:08:54;;;;;;;7.32;0.80;;;;;;;;;;5040578;28;20063;-73
2022/04/02 08:11:22;;;;;;;6.07;0.60;;;;;;;;;;5041555;28;20040;-72
2022/04/02 08:13:49;;;;;;;8.50;0.80;;;;;;;;;;5039952;28;20052;-72
2022/04/02 08:16:18;;;;;;;3.72;0.80;;;;;;;;;;5040959;28;20391;-73
2022/04/02 08:18:47;;;;;;;1.80;0.57;;;;;;;;;;5039871;28;20049;-73
2022/04/02 08:21:15;;;;;;;4.40;0.50;;;;;;;;;;5042540;28;20056;-73
2022/04/02 08:23:43;;;;;;;3.85;0.80;;;;;;;;;;5043086;28;20053;-70
2022/04/02 08:26:20;;;;;;;3.38;0.88;;;;;;;;;;5043886;28;20052;-71
2022/04/02 08:28:57;;;;;;;3.85;0.88;;;;;;;;;;5053785;28;20055;-71
2022/04/02 08:31:29;;;;;;;2.90;0.65;;;;;;;;;;5036261;28;20407;-71
2022/04/02 08:34:03;;;;;;;2.42;0.70;;;;;;;;;;5041017;28;20463;-71
2022/04/02 08:36:35;;;;;;;2.35;0.55;;;;;;;;;;5039598;28;20053;-71
2022/04/02 08:39:04;;;;;;;2.63;0.70;;;;;;;;;;5039362;28;20048;-72
2022/04/02 08:41:45;;;;;;;3.47;0.70;;;;;;;;;;5045669;28;20170;-72
2022/04/02 08:44:27;;;;;;;4.78;0.77;;;;;;;;;;5048216;28;20052;-71
2022/04/02 08:47:05;;;;;;;3.20;0.57;;;;;;;;;;5048609;28;20084;-72
2022/04/02 08:49:39;;;;;;;3.33;0.60;;;;;;;;;;5047137;28;20406;-71
2022/04/02 08:52:19;;;;;;;3.03;0.60;;;;;;;;;;5046257;28;20064;-71
2022/04/02 08:54:48;;;;;;;4.28;0.70;;;;;;;;;;5048230;28;20049;-71
2022/04/02 08:57:24;;;;;;;5.47;0.70;;;;;;;;;;5047499;28;20064;-71
2022/04/02 08:59:59;;;;;;;2.65;0.75;;;;;;;;;;5051700;28;20062;-71
2022/04/02 09:02:54;;;;;;;6.85;0.93;;;;;;;;;;5050250;28;20052;-71
2022/04/02 09:05:32;;;;;;;5.20;0.80;;;;;;;;;;5009664;28;20056;-71
2022/04/02 09:08:20;;;;;;;5.20;0.80;;;;;;;;;;5048839;28;20061;-71
2022/04/02 09:11:06;;;;;;;2.17;0.55;;;;;;;;;;5049458;28;20056;-71
2022/04/02 09:13:48;;;;;;;3.63;0.70;;;;;;;;;;5054724;28;20139;-71
2022/04/02 09:16:22;;;;;;;5.43;0.57;;;;;;;;;;5053222;28;20655;-71
2022/04/02 09:19:01;;;;;;;3.65;0.70;;;;;;;;;;5051618;28;20041;-71
2022/04/02 09:21:31;;;;;;;4.45;0.70;;;;;;;;;;5051431;28;20048;-71
2022/04/02 09:24:06;;;;;;;1.15;0.47;;;;;;;;;;5055677;28;20053;-71
2022/04/02 09:26:57;;;;;;;4.95;0.90;;;;;;;;;;5050734;28;20495;-71
2022/04/02 09:29:28;;;;;;;4.47;0.80;;;;;;;;;;5047851;28;20489;-71
2022/04/02 09:32:24;;;;;;;2.92;0.70;;;;;;;;;;5049535;28;20131;-72
2022/04/02 09:35:13;;;;;;;2.00;0.60;;;;;;;;;;5049865;28;20048;-72
2022/04/02 09:38:01;;;;;;;2.92;0.60;;;;;;;;;;5054282;28;20048;-72
2022/04/02 09:40:34;;;;;;;5.72;0.73;;;;;;;;;;5045673;28;20122;-72
2022/04/02 09:43:01;;;;;;;;;;;;;;;;;;5053005;28;20628;-72
2022/04/02 09:45:33;;;;;;;4.93;0.80;;;;;;;;;;5051529;28;19981;-72
2022/04/02 09:48:10;;;;;;;3.92;0.77;;;;;;;;;;5051444;28;20075;-72
2022/04/02 09:50:37;;;;;;;4.70;0.80;;;;;;;;;;5050520;28;20110;-72
2022/04/02 09:53:22;;;;;;;3.85;0.90;;;;;;;;;;5050809;28;20127;-72
2022/04/02 09:55:58;;;;;;;4.30;0.73;;;;;;;;;;5047306;28;20439;-72
2022/04/02 09:58:34;;;;;;;2.70;0.60;;;;;;;;;;5053801;28;20103;-72
2022/04/02 10:01:04;;;;;;;3.47;0.60;;;;;;;;;;5053498;28;20163;-72
2022/04/02 10:03:40;;;;;;;4.05;0.80;;;;;;;;;;5052741;28;20066;-72
2022/04/02 10:06:34;;;;;;;3.90;1.08;;;;;;;;;;5048858;28;20060;-72
2022/04/02 10:09:06;;;;;;;2.85;0.50;;;;;;;;;;5002751;28;20075;-71
2022/04/02 10:11:35;;;;;;;3.90;0.75;;;;;;;;;;5051481;28;20109;-71
2022/04/02 10:14:04;;;;;;;4.10;0.90;;;;;;;;;;5050726;28;20052;-73
2022/04/02 10:16:32;;;;;;;3.47;0.80;;;;;;;;;;5057018;28;20757;-72
2022/04/02 10:19:00;;;;;;;5.38;0.88;;;;;;;;;;5052979;28;20066;-72
2022/04/02 10:21:29;;;;;;;2.25;0.60;;;;;;;;;;5054141;28;20114;-72
2022/04/02 10:24:05;;;;;;;5.10;0.85;;;;;;;;;;5052512;28;20083;-72
2022/04/02 10:26:38;;;;;;;6.45;0.60;;;;;;;;;;5049321;28;20075;-72
2022/04/02 10:29:10;;;;;;;2.42;0.75;;;;;;;;;;5045824;28;20048;-72
2022/04/02 10:31:40;;;;;;;4.22;0.80;;;;;;;;;;5049377;28;20117;-72
2022/04/02 10:34:12;;;;;;;3.13;0.63;;;;;;;;;;5064430;28;20146;-72
2022/04/02 10:36:42;;;;;;;7.60;0.98;;;;;;;;;;5049774;28;20063;-72
2022/04/02 10:39:10;;;;;;;1.40;0.52;;;;;;;;;;5047501;28;20135;-72
2022/04/02 10:41:41;;;;;;;3.60;0.70;;;;;;;;;;5049415;28;20138;-72
2022/04/02 10:44:12;;;;;;;3.40;0.80;;;;;;;;;;5049780;28;20469;-72
2022/04/02 10:46:40;;;;;;;2.63;0.77;;;;;;;;;;5056851;28;20052;-72
2022/04/02 10:49:08;;;;;;;4.25;0.82;;;;;;;;;;5053298;28;20063;-72
2022/04/02 10:51:38;;;;;;;4.18;0.70;;;;;;;;;;5050147;28;20053;-72
2022/04/02 10:54:07;;;;;;;2.95;0.80;;;;;;;;;;5041624;28;20061;-72
2022/04/02 10:56:35;;;;;;;3.58;0.80;;;;;;;;;;5048362;28;20129;-72
2022/04/02 10:59:04;;;;;;;2.97;0.50;;;;;;;;;;5049518;28;20142;-72
2022/04/02 11:01:32;;;;;;;4.47;0.85;;;;;;;;;;5053850;28;20052;-72
2022/04/02 11:04:03;;;;;;;2.08;0.50;;;;;;;;;;5052814;28;20170;-71
2022/04/02 11:06:46;;;;;;;2.88;0.70;;;;;;;;;;5046984;28;20100;-71
2022/04/02 11:09:27;;;;;;;4.45;0.65;;;;;;;;;;5048832;28;20161;-72
2022/04/02 11:11:55;;;;;;;2.08;0.75;;;;;;;;;;5049273;28;20052;-72
2022/04/02 11:14:23;;;;;;;4.82;0.60;;;;;;;;;;5049332;28;20117;-72
2022/04/02 11:16:50;;;;;;;6.68;0.82;;;;;;;;;;5049612;28;20839;-72
2022/04/02 11:22:04;;;;;;;2.55;0.70;;;;;;;;;;5043700;28;20055;-72
2022/04/02 11:24:33;;;;;;;2.42;0.70;;;;;;;;;;5048495;28;20055;-72
2022/04/02 11:27:01;;;;;;;2.67;0.70;;;;;;;;;;5049087;28;20475;-72
2022/04/02 11:29:32;;;;;;;6.20;0.80;;;;;;;;;;5047243;28;20052;-72
2022/04/02 11:32:02;;;;;;;6.18;0.75;;;;;;;;;;5050362;28;20391;-72
2022/04/02 11:34:30;;;;;;;1.92;0.70;;;;;;;;;;5055365;28;20147;-72
2022/04/02 11:37:01;;;;;;;5.07;0.70;;;;;;;;;;5052705;28;20627;-71
2022/04/02 11:39:34;;;;;;;3.15;0.82;;;;;;;;;;5045404;28;20057;-71
2022/04/02 11:42:03;;;;;;;4.47;0.90;;;;;;;;;;5051673;28;20060;-72
2022/04/02 11:44:39;;;;;;;4.40;0.60;;;;;;;;;;5053570;28;20052;-72
2022/04/02 11:47:07;;;;;;;3.80;0.80;;;;;;;;;;5049310;28;20055;-73
2022/04/02 11:49:36;;;;;;;3.92;0.90;;;;;;;;;;5045787;28;20059;-72
2022/04/02 11:52:05;;;;;;;7.65;1.02;;;;;;;;;;5047519;28;20131;-73
2022/04/02 11:54:33;;;;;;;3.35;0.70;;;;;;;;;;5052791;28;20052;-72
2022/04/02 11:57:07;;;;;;;5.13;0.90;;;;;;;;;;5046089;28;20056;-72
2022/04/02 11:59:36;;;;;;;2.30;0.60;;;;;;;;;;5047233;28;20095;-72
2022/04/02 12:02:05;;;;;;;6.38;0.70;;;;;;;;;;5037898;28;20094;-72
2022/04/02 12:04:34;;;;;;;3.85;0.65;;;;;;;;;;5046280;28;20048;-72
2022/04/02 12:07:06;;;;;;;3.17;0.77;;;;;;;;;;5049157;28;20143;-73
2022/04/02 12:09:34;;;;;;;6.63;0.88;;;;;;;;;;5044531;28;20048;-72
2022/04/02 12:12:02;;;;;;;1.70;0.75;;;;;;;;;;5047199;28;20084;-72
2022/04/02 12:14:30;;;;;;;1.75;0.80;;;;;;;;;;5065114;28;20056;-73
2022/04/02 12:16:59;;;;;;;3.47;0.90;;;;;;;;;;5046803;28;20057;-73
2022/04/02 12:19:35;;;;;;;5.97;0.90;;;;;;;;;;5047834;28;20143;-73
2022/04/02 12:22:04;;;;;;;4.82;1.10;;;;;;;;;;5048623;28;20048;-73
2022/04/02 12:24:39;;;;;;;4.28;0.80;;;;;;;;;;5053079;28;20140;-73
2022/04/02 12:27:07;;;;;;;3.22;0.70;;;;;;;;;;5047253;28;20502;-73
2022/04/02 12:29:34;;;;;;;5.03;0.90;;;;;;;;;;5045611;28;21520;-73
2022/04/02 12:32:03;;;;;;;2.67;0.70;;;;;;;;;;5042794;28;20057;-73
2022/04/02 12:34:32;;;;;;;3.60;0.85;;;;;;;;;;5047843;28;20092;-74
2022/04/02 12:37:03;;;;;;;2.72;0.90;;;;;;;;;;5047044;28;20060;-74
2022/04/02 12:39:31;;;;;;;2.70;0.80;;;;;;;;;;5047375;28;20048;-73
2022/04/02 12:41:58;;;;;;;5.20;0.90;;;;;;;;;;5047634;28;20057;-74
2022/04/02 12:44:25;;;;;;;3.38;0.63;;;;;;;;;;5040727;28;20060;-74
2022/04/02 12:46:54;;;;;;;3.25;0.80;;;;;;;;;;5041740;28;20055;-74
2022/04/02 12:49:31;;;;;;;2.67;0.80;;;;;;;;;;5040502;28;20135;-74
2022/04/02 12:52:13;;;;;;;3.88;0.90;;;;;;;;;;5040909;28;20052;-74
2022/04/02 12:54:44;;;;;;;4.45;1.00;;;;;;;;;;5047539;28;20049;-74
2022/04/02 12:57:13;;;;;;;4.10;1.00;;;;;;;;;;5064356;28;20080;-74
2022/04/02 12:59:43;;;;;;;5.68;0.98;;;;;;;;;;5035869;28;20080;-74
2022/04/02 13:02:11;;;;;;;3.47;0.90;;;;;;;;;;5038571;28;20063;-74
2022/04/02 13:04:41;;;;;;;3.75;0.90;;;;;;;;;;5033182;28;20060;-74
2022/04/02 13:07:16;;;;;;;2.47;0.80;;;;;;;;;;5040425;28;20060;-73
2022/04/02 13:09:45;;;;;;;2.28;0.77;;;;;;;;;;5040180;28;20041;-73
2022/04/02 13:12:13;;;;;;;4.60;0.80;;;;;;;;;;5046236;28;20052;-73
2022/04/02 13:14:42;;;;;;;5.22;0.88;;;;;;;;;;5039612;28;20513;-74
2022/04/02 13:17:10;;;;;;;4.72;0.90;;;;;;;;;;5039540;28;20462;-74
2022/04/02 13:22:35;;;;;;;2.75;0.98;;;;;;;;;;5042133;28;20056;-74
2022/04/02 13:25:03;;;;;;;1.95;0.85;;;;;;;;;;5036158;28;20064;-74
2022/04/02 13:27:48;;;;;;;4.20;0.77;;;;;;;;;;5044614;28;20526;-74
2022/04/02 13:30:15;;;;;;;4.55;1.02;;;;;;;;;;5046250;28;20498;-74
2022/04/02 13:33:06;;;;;;;6.03;1.48;;;;;;;;;;5049033;28;20064;-74
2022/04/02 13:35:36;;;;;;;3.28;0.90;;;;;;;;;;5051657;28;20125;-75
2022/04/02 13:38:15;;;;;;;2.78;0.73;;;;;;;;;;5055075;28;20679;-74
2022/04/02 13:40:46;;;;;;;5.57;1.00;;;;;;;;;;5049331;28;20045;-74
2022/04/02 13:43:17;;;;;;;4.30;0.90;;;;;;;;;;5051131;28;20100;-75
2022/04/02 13:45:44;;;;;;;4.32;1.13;;;;;;;;;;5042295;28;20061;-75
2022/04/02 13:48:12;;;;;;;3.67;1.10;;;;;;;;;;5043142;28;20052;-74
2022/04/02 13:50:40;;;;;;;4.43;1.02;;;;;;;;;;5045443;28;20487;-74
2022/04/02 13:53:08;;;;;;;3.50;1.10;;;;;;;;;;5039873;28;20059;-74
2022/04/02 13:55:38;;;;;;;6.82;1.10;;;;;;;;;;5043192;28;20102;-74
2022/04/02 13:58:06;;;;;;;3.88;1.00;;;;;;;;;;5043677;28;20121;-74
2022/04/02 14:00:38;;;;;;;4.45;1.27;;;;;;;;;;5038450;28;20491;-74
2022/04/02 14:03:07;;;;;;;3.57;1.20;;;;;;;;;;5042395;28;20140;-75
2022/04/02 14:05:37;;;;;;;4.55;1.20;;;;;;;;;;5040490;28;20052;-74
2022/04/02 14:08:06;;;;;;;3.63;1.17;;;;;;;;;;5046522;28;20090;-75
2022/04/02 14:10:35;;;;;;;3.10;1.10;;;;;;;;;;5040447;28;20467;-74
2022/04/02 14:13:07;;;;;;;4.25;1.00;;;;;;;;;;5040107;28;20084;-74
2022/04/02 14:15:36;;;;;;;4.63;1.00;;;;;;;;;;5042455;28;20162;-74
2022/04/02 14:18:04;;;;;;;4.15;0.93;;;;;;;;;;5044967;28;20075;-75
2022/04/02 14:20:32;;;;;;;4.88;1.10;;;;;;;;;;5047215;28;20052;-75
2022/04/02 14:23:04;;;;;;;6.78;1.05;;;;;;;;;;5049031;28;20060;-75
2022/04/02 14:25:48;;;;;;;5.10;0.82;;;;;;;;;;5049166;28;20386;-75
2022/04/02 14:28:27;;;;;;;3.72;0.88;;;;;;;;;;5047658;28;20052;-75
2022/04/02 14:31:15;;;;;;;3.85;1.20;;;;;;;;;;5048890;28;20117;-75
2022/04/02 14:33:53;;;;;;;4.13;0.90;;;;;;;;;;5030359;28;20052;-75
2022/04/02 14:36:51;;;;;;;4.65;0.90;;;;;;;;;;5053228;28;20060;-75
2022/04/02 14:39:33;;;;;;;3.97;1.20;;;;;;;;;;4985611;28;20042;-75
2022/04/02 14:42:06;;;;;;;1.55;0.70;;;;;;;;;;5037867;28;20507;-76
2022/04/02 14:44:52;;;;;;;5.22;1.00;;;;;;;;;;5048162;28;20063;-76
2022/04/02 14:47:46;;;;;;;7.88;1.30;;;;;;;;;;5065771;28;20390;-75
2022/04/02 14:50:41;;;;;;;5.03;1.00;;;;;;;;;;5047979;28;20098;-76
2022/04/02 14:53:24;;;;;;;3.28;0.98;;;;;;;;;;5043515;28;20048;-75
2022/04/02 14:56:11;;;;;;;5.00;0.90;;;;;;;;;;5042460;28;20060;-75
2022/04/02 14:59:05;;;;;;;3.05;0.88;;;;;;;;;;5041245;28;20189;-75
2022/04/02 15:01:43;;;;;;;4.28;1.10;;;;;;;;;;5038310;28;20052;-75
2022/04/02 15:04:29;;;;;;;1.58;0.88;;;;;;;;;;5041429;28;20052;-76
2022/04/02 15:07:09;;;;;;;2.60;0.98;;;;;;;;;;5044492;28;20052;-75
2022/04/02 15:09:55;;;;;;;3.50;0.85;;;;;;;;;;5049031;28;20063;-76